Dragon — C6ZE3 — position and weather

sailwx.info

Track history (hours):
 
Tides and Currents Weather Stations Pressure Air Temp Water Temp Dewpoint Dewpoint Depression Visibility Wind Speed Wind Dir Waves Ship Positions

Dragon

Last reported at 2018-Apr-30 13:44 UTC. Time now 2018-May-25 18:38 UTC.
Position N 01°21' E 103°18'.
Warning: this ship's position is 25 days out of date.

Length 229 m; draft 14.5 m.

Type: Cargo ship. MMSI: 311053700.

Date/timePositionNaut miles runAvg speedWind from/ knotsBaromVisibWave heightAir tempDewpointWater temp
2018-Apr-30 13:44N 01°21' E 103°18'310.2
2018-Apr-30 13:24N 01°18' E 103°20'511.0
2018-Apr-30 12:59N 01°15' E 103°23'612.3
2018-Apr-30 12:29N 01°13' E 103°29'612.2
2018-Apr-30 11:59N 01°11' E 103°35'511.0
2018-Apr-30 11:30N 01°11' E 103°40'510.0
2018-Apr-30 10:59N 01°09' E 103°45'4 9.4
2018-Apr-30 10:30N 01°11' E 103°49'610.0
2018-Apr-30 09:57N 01°13' E 103°54'4 8.8
2018-Apr-30 09:30N 01°16' E 103°57'1 0.6
2018-Apr-30 08:03N 01°17' E 103°56'0 0.2
2018-Apr-30 07:45N 01°17' E 103°56'0 0.2
2018-Apr-30 07:29N 01°17' E 103°56'0 0.1
2018-Apr-30 06:54N 01°17' E 103°56'0 0.1
2018-Apr-30 06:30N 01°17' E 103°56'0 0.1
2018-Apr-30 05:59N 01°17' E 103°56'0 0.1
2018-Apr-30 05:30N 01°17' E 103°56'0 0.0
2018-Apr-30 04:48N 01°17' E 103°56'0 0.0
2018-Apr-30 04:15N 01°17' E 103°56'0 0.0
2018-Apr-30 03:52N 01°17' E 103°56'0 0.0
2018-Apr-30 03:18N 01°17' E 103°56'0 0.0
2018-Apr-30 02:59N 01°17' E 103°56'0 0.0
2018-Apr-30 02:24N 01°17' E 103°56'0 0.0
2018-Apr-30 01:54N 01°17' E 103°56'0 0.1
2018-Apr-30 01:26N 01°17' E 103°56'0 0.1
2018-Apr-30 00:57N 01°17' E 103°56'1 1.9
2018-Apr-30 00:30N 01°16' E 103°57'3 5.1
2018-Apr-29 23:59N 01°16' E 103°59'3 6.2
2018-Apr-29 23:30N 01°16' E 104°02'5 8.5
2018-Apr-29 22:56N 01°17' E 104°07'4 8.9
2018-Apr-29 22:29N 01°17' E 104°11'4 8.9
2018-Apr-29 21:59N 01°18' E 104°15'5 9.4
2018-Apr-29 21:28N 01°19' E 104°20'5 9.8
2018-Apr-29 20:58N 01°22' E 104°24'5 9.3
2018-Apr-29 20:25N 01°26' E 104°28'1910.4
2018-Apr-29 18:35N 01°21' E 104°46'  
Track history (hours):
 
Tides and Currents Weather Stations Pressure Air Temp Water Temp Dewpoint Dewpoint Depression Visibility Wind Speed Wind Dir Waves Ship Positions

Dragon

Last reported at 2018-Apr-30 13:44 UTC. Time now 2018-May-25 18:38 UTC.
Position N 01°21' E 103°18'.
Warning: this ship's position is 25 days out of date.

Length 229 m; draft 14.5 m.

Type: Cargo ship. MMSI: 311053700.

Date/timePositionNaut miles runAvg speedWind from/ knotsBaromVisibWave heightAir tempDewpointWater temp
2018-Apr-30 13:44N 01°21' E 103°18'310.2
2018-Apr-30 13:24N 01°18' E 103°20'511.0
2018-Apr-30 12:59N 01°15' E 103°23'612.3
2018-Apr-30 12:29N 01°13' E 103°29'612.2
2018-Apr-30 11:59N 01°11' E 103°35'511.0
2018-Apr-30 11:30N 01°11' E 103°40'510.0
2018-Apr-30 10:59N 01°09' E 103°45'4 9.4
2018-Apr-30 10:30N 01°11' E 103°49'610.0
2018-Apr-30 09:57N 01°13' E 103°54'4 8.8
2018-Apr-30 09:30N 01°16' E 103°57'1 0.6
2018-Apr-30 08:03N 01°17' E 103°56'0 0.2
2018-Apr-30 07:45N 01°17' E 103°56'0 0.2
2018-Apr-30 07:29N 01°17' E 103°56'0 0.1
2018-Apr-30 06:54N 01°17' E 103°56'0 0.1
2018-Apr-30 06:30N 01°17' E 103°56'0 0.1
2018-Apr-30 05:59N 01°17' E 103°56'0 0.1
2018-Apr-30 05:30N 01°17' E 103°56'0 0.0
2018-Apr-30 04:48N 01°17' E 103°56'0 0.0
2018-Apr-30 04:15N 01°17' E 103°56'0 0.0
2018-Apr-30 03:52N 01°17' E 103°56'0 0.0
2018-Apr-30 03:18N 01°17' E 103°56'0 0.0
2018-Apr-30 02:59N 01°17' E 103°56'0 0.0
2018-Apr-30 02:24N 01°17' E 103°56'0 0.0
2018-Apr-30 01:54N 01°17' E 103°56'0 0.1
2018-Apr-30 01:26N 01°17' E 103°56'0 0.1
2018-Apr-30 00:57N 01°17' E 103°56'1 1.9
2018-Apr-30 00:30N 01°16' E 103°57'3 5.1
2018-Apr-29 23:59N 01°16' E 103°59'3 6.2
2018-Apr-29 23:30N 01°16' E 104°02'5 8.5
2018-Apr-29 22:56N 01°17' E 104°07'4 8.9
2018-Apr-29 22:29N 01°17' E 104°11'4 8.9
2018-Apr-29 21:59N 01°18' E 104°15'5 9.4
2018-Apr-29 21:28N 01°19' E 104°20'5 9.8
2018-Apr-29 20:58N 01°22' E 104°24'5 9.3
2018-Apr-29 20:25N 01°26' E 104°28'1910.4
2018-Apr-29 18:35N 01°21' E 104°46'  

Dump ship's entire track history